Time;durP1;ratioP1;P1;durP2;ratioP2;P2;SDS_P1;SDS_P2;PMS_P1;PMS_P2;Temp;Humidity;BMP_temperature;BMP_pressure;BME280_temperature;BME280_humidity;BME280_pressure;Samples;Min_cycle;Max_cycle;Signal;HPM_P1;HPM_P2
2023/04/27 00:00:35;;;;;;;8.85;3.67;;;;;;;8.68;53.91;96763.88;5028456;28;20454;-86
2023/04/27 00:03:04;;;;;;;4.25;3.28;;;;;;;8.65;54.39;96766.78;5044363;28;20053;-84
2023/04/27 00:05:34;;;;;;;6.95;3.88;;;;;;;8.66;56.07;96771.03;5049961;28;20109;-79
2023/04/27 00:08:02;;;;;;;5.50;3.50;;;;;;;8.69;55.88;96762.06;5048054;28;20076;-82
2023/04/27 00:10:30;;;;;;;4.07;3.25;;;;;;;8.72;56.03;96759.13;5031388;28;20046;-83
2023/04/27 00:12:57;;;;;;;8.38;4.47;;;;;;;8.75;55.43;96758.81;5043026;28;20060;-84
2023/04/27 00:15:25;;;;;;;4.97;4.10;;;;;;;8.75;54.88;96756.22;5042169;28;20049;-83
2023/04/27 00:17:54;;;;;;;5.75;4.00;;;;;;;8.71;54.75;96762.72;5024949;28;20049;-84
2023/04/27 00:20:22;;;;;;;4.93;3.80;;;;;;;8.69;54.82;96751.66;5021369;28;20120;-81
2023/04/27 00:22:50;;;;;;;8.45;3.88;;;;;;;8.68;54.79;96752.63;5020263;28;20056;-81
2023/04/27 00:25:17;;;;;;;7.90;4.90;;;;;;;8.62;54.92;96747.13;5019564;28;20057;-80
2023/04/27 00:27:45;;;;;;;7.38;4.35;;;;;;;8.58;55.17;96753.63;5030714;28;20310;-87
2023/04/27 00:30:12;;;;;;;6.82;4.25;;;;;;;8.53;55.11;96749.91;5031976;28;20053;-79
2023/04/27 00:32:41;;;;;;;6.13;4.55;;;;;;;8.50;55.27;96735.44;5028220;28;20064;-84
2023/04/27 00:35:11;;;;;;;5.38;4.13;;;;;;;8.49;55.56;96744.22;5020322;28;20069;-83
2023/04/27 00:37:38;;;;;;;5.32;4.03;;;;;;;8.50;55.66;96734.63;5021608;28;20053;-87
2023/04/27 00:40:07;;;;;;;5.40;4.15;;;;;;;8.48;55.32;96737.38;5020172;28;20529;-79
2023/04/27 00:42:35;;;;;;;9.25;3.78;;;;;;;8.44;55.29;96736.13;5038303;28;20045;-82
2023/04/27 00:45:04;;;;;;;6.72;3.95;;;;;;;8.38;55.40;96734.13;5042562;22;20069;-76
2023/04/27 00:47:32;;;;;;;8.18;4.50;;;;;;;8.33;55.70;96739.00;5031662;28;20136;-77
2023/04/27 00:50:00;;;;;;;5.82;3.88;;;;;;;8.29;55.64;96735.09;5023426;28;20572;-77
2023/04/27 00:52:29;;;;;;;6.68;3.53;;;;;;;8.24;56.06;96736.44;5015755;28;20054;-77
2023/04/27 00:54:57;;;;;;;6.00;3.38;;;;;;;8.18;56.03;96729.28;5023724;28;20048;-77
2023/04/27 00:57:25;;;;;;;6.78;4.10;;;;;;;8.13;56.32;96739.31;5026228;28;20501;-77
2023/04/27 00:59:53;;;;;;;8.30;5.13;;;;;;;8.07;56.25;96740.00;5024114;28;20046;-77
2023/04/27 01:02:21;;;;;;;7.70;4.88;;;;;;;8.00;56.27;96737.25;5015191;28;20041;-78
2023/04/27 01:04:50;;;;;;;9.90;5.78;;;;;;;7.96;56.48;96737.69;5015032;28;20049;-77
2023/04/27 01:07:18;;;;;;;10.25;6.15;;;;;;;7.91;56.88;96734.78;5016410;28;20049;-77
2023/04/27 01:09:47;;;;;;;10.75;6.32;;;;;;;7.86;56.82;96737.06;5015082;28;20053;-77
2023/04/27 01:12:15;;;;;;;9.07;5.63;;;;;;;7.82;57.24;96732.19;5023479;28;20071;-78
2023/04/27 01:14:42;;;;;;;10.65;5.38;;;;;;;7.79;57.40;96735.09;5030032;28;20057;-77
2023/04/27 01:17:10;;;;;;;9.15;5.50;;;;;;;7.77;57.47;96744.84;5020140;28;20052;-76
2023/04/27 01:19:39;;;;;;;9.40;5.82;;;;;;;7.78;58.08;96736.09;5021623;28;20568;-76
2023/04/27 01:22:07;;;;;;;8.85;5.20;;;;;;;7.77;57.56;96737.06;5029731;28;20049;-77
2023/04/27 01:24:36;;;;;;;7.70;4.60;;;;;;;7.75;57.62;96740.78;5022559;28;20056;-77
2023/04/27 01:27:04;;;;;;;6.40;3.90;;;;;;;7.70;58.04;96743.88;5023583;28;20053;-76
2023/04/27 01:29:31;;;;;;;7.93;4.43;;;;;;;7.66;57.72;96739.97;5033229;28;20420;-76
2023/04/27 01:31:59;;;;;;;5.55;4.18;;;;;;;7.60;57.75;96744.00;5032803;28;20057;-76
2023/04/27 01:34:27;;;;;;;6.25;4.20;;;;;;;7.55;58.11;96745.47;5025031;28;20530;-76
2023/04/27 01:36:54;;;;;;;9.02;4.07;;;;;;;7.49;58.16;96746.09;5033742;28;20050;-76
2023/04/27 01:39:22;;;;;;;11.40;3.90;;;;;;;7.43;57.88;96740.56;4995410;28;20054;-76
2023/04/27 01:41:51;;;;;;;8.57;4.78;;;;;;;7.40;57.89;96747.84;4995049;28;20057;-76
2023/04/27 01:44:19;;;;;;;5.47;3.75;;;;;;;7.35;57.76;96737.94;5025130;28;20053;-76
2023/04/27 01:46:47;;;;;;;7.25;4.30;;;;;;;7.30;58.02;96740.19;5014350;28;20077;-76
2023/04/27 01:49:14;;;;;;;8.07;3.75;;;;;;;7.25;58.24;96739.84;5033296;28;20410;-76
2023/04/27 01:51:43;;;;;;;4.20;3.78;;;;;;;7.20;58.43;96740.31;5034105;28;20045;-76
2023/04/27 01:54:10;;;;;;;9.20;3.60;;;;;;;7.15;58.04;96739.16;5032930;28;20046;-76
2023/04/27 01:56:38;;;;;;;7.13;4.35;;;;;;;7.12;58.65;96742.88;5025091;28;20065;-77
2023/04/27 01:59:06;;;;;;;9.00;4.00;;;;;;;7.06;58.79;96748.69;5020817;28;20562;-76
2023/04/27 02:01:34;;;;;;;7.22;3.75;;;;;;;7.05;58.57;96738.50;5014973;28;20054;-76
2023/04/27 02:04:02;;;;;;;8.13;3.47;;;;;;;7.03;58.41;96746.41;5030196;28;20041;-76
2023/04/27 02:06:30;;;;;;;4.22;3.80;;;;;;;7.01;58.53;96749.16;5027975;28;20084;-76
2023/04/27 02:08:58;;;;;;;7.97;3.70;;;;;;;7.00;58.55;96744.94;5014821;28;20054;-76
2023/04/27 02:11:26;;;;;;;6.32;3.60;;;;;;;6.99;58.80;96740.72;5018231;28;20041;-76
2023/04/27 02:13:54;;;;;;;7.60;3.60;;;;;;;6.97;58.48;96753.03;5024289;28;20099;-76
2023/04/27 02:16:23;;;;;;;6.43;3.50;;;;;;;6.97;58.46;96742.66;5023956;28;20053;-76
2023/04/27 02:18:52;;;;;;;5.57;3.40;;;;;;;6.95;58.40;96749.81;5033708;28;20064;-76
2023/04/27 02:21:20;;;;;;;3.47;3.10;;;;;;;6.96;58.47;96758.38;5032380;28;20499;-76
2023/04/27 02:23:48;;;;;;;4.72;3.30;;;;;;;7.00;58.88;96757.13;5029777;28;20056;-77
2023/04/27 02:26:17;;;;;;;5.65;3.20;;;;;;;7.05;58.45;96756.66;5033451;28;20086;-76
2023/04/27 02:28:45;;;;;;;6.60;3.45;;;;;;;7.08;58.10;96759.72;5014996;28;20050;-76
2023/04/27 02:31:13;;;;;;;6.55;3.42;;;;;;;7.08;58.24;96766.69;5015537;28;20513;-76
2023/04/27 02:33:42;;;;;;;5.88;3.28;;;;;;;7.07;58.36;96757.31;5016281;28;20142;-76
2023/04/27 02:36:10;;;;;;;7.88;4.43;;;;;;;7.05;58.28;96759.25;5033607;28;20567;-76
2023/04/27 02:38:37;;;;;;;5.28;3.22;;;;;;;7.01;57.97;96756.13;5032520;28;20132;-76
2023/04/27 02:41:05;;;;;;;6.88;3.47;;;;;;;6.99;58.11;96748.50;5014721;28;20046;-76
2023/04/27 02:43:33;;;;;;;6.85;4.22;;;;;;;6.96;58.12;96756.59;5013982;28;20076;-78
2023/04/27 02:46:02;;;;;;;6.70;4.30;;;;;;;6.95;58.22;96754.16;5021925;28;20089;-77
2023/04/27 02:48:30;;;;;;;12.07;4.35;;;;;;;6.95;58.49;96751.56;5013868;28;20053;-77
2023/04/27 02:50:59;;;;;;;7.75;3.92;;;;;;;6.94;58.70;96750.75;5013834;28;20045;-77
2023/04/27 02:53:27;;;;;;;7.53;3.85;;;;;;;6.96;58.56;96750.59;5017417;28;20050;-77
2023/04/27 02:55:54;;;;;;;8.00;4.40;;;;;;;6.98;58.67;96754.66;5031577;28;20053;-77
2023/04/27 02:58:22;;;;;;;8.77;4.13;;;;;;;7.04;58.41;96760.19;5032299;28;20152;-77
2023/04/27 03:00:54;;;;;;;8.43;3.65;;;;;;;7.06;58.47;96756.47;5028382;28;20074;-77
2023/04/27 03:03:21;;;;;;;7.90;3.80;;;;;;;7.11;57.98;96763.81;5022834;28;20112;-77
2023/04/27 03:05:49;;;;;;;9.10;3.70;;;;;;;7.11;58.16;96759.44;5013163;28;20104;-77
2023/04/27 03:08:18;;;;;;;6.63;3.53;;;;;;;7.14;58.10;96768.69;5011066;28;20417;-77
2023/04/27 03:10:46;;;;;;;6.43;3.50;;;;;;;7.15;58.12;96762.50;5017039;28;20068;-77
2023/04/27 03:13:14;;;;;;;8.15;4.20;;;;;;;7.13;57.94;96761.88;5017366;28;20050;-77
2023/04/27 03:15:41;;;;;;;7.15;3.47;;;;;;;7.11;57.48;96763.81;5030197;28;20060;-77
2023/04/27 03:18:10;;;;;;;6.20;3.40;;;;;;;7.07;57.72;96765.09;5049984;28;20033;-77
2023/04/27 03:20:37;;;;;;;6.60;4.00;;;;;;;7.05;58.01;96772.22;5033911;28;20033;-77
2023/04/27 03:23:05;;;;;;;7.53;3.92;;;;;;;6.99;57.85;96769.25;5033107;28;20114;-77
2023/04/27 03:25:34;;;;;;;7.57;4.22;;;;;;;6.97;58.08;96776.38;5021351;28;20049;-77
2023/04/27 03:28:02;;;;;;;7.13;4.68;;;;;;;6.96;58.04;96772.16;5012496;28;20042;-77
2023/04/27 03:30:29;;;;;;;7.00;4.20;;;;;;;6.97;58.11;96772.97;5013592;28;20054;-77
2023/04/27 03:32:57;;;;;;;6.45;3.55;;;;;;;7.00;58.14;96781.25;5012909;28;20061;-78
2023/04/27 03:35:26;;;;;;;5.40;3.75;;;;;;;7.03;58.00;96766.38;5032460;28;20065;-78
2023/04/27 03:37:53;;;;;;;6.00;3.85;;;;;;;7.05;57.83;96774.81;5032598;28;20049;-77
2023/04/27 03:40:21;;;;;;;5.03;3.50;;;;;;;7.06;57.81;96776.41;5015126;28;20140;-77
2023/04/27 03:42:50;;;;;;;5.80;3.88;;;;;;;7.03;57.88;96774.94;5012952;28;20128;-77
2023/04/27 03:45:21;;;;;;;7.32;3.83;;;;;;;7.04;58.31;96775.75;5051883;28;20049;-78
2023/04/27 03:47:48;;;;;;;4.88;3.55;;;;;;;7.08;58.47;96784.84;5053950;28;20093;-78
2023/04/27 03:50:16;;;;;;;7.88;4.05;;;;;;;7.12;58.65;96781.00;5051652;28;20033;-78
2023/04/27 03:52:43;;;;;;;5.60;3.63;;;;;;;7.16;58.31;96782.31;5052809;28;20049;-77
2023/04/27 03:55:11;;;;;;;7.28;3.72;;;;;;;7.15;58.28;96781.50;5044928;28;20049;-77
2023/04/27 03:57:39;;;;;;;7.60;3.60;;;;;;;7.13;57.90;96777.44;5051281;28;20105;-77
2023/04/27 04:00:11;;;;;;;8.32;4.40;;;;;;;7.10;57.67;96782.91;5036716;28;20057;-77
2023/04/27 04:02:38;;;;;;;5.95;3.72;;;;;;;7.06;57.78;96779.81;5033299;28;20433;-77
2023/04/27 04:05:07;;;;;;;10.05;3.92;;;;;;;7.07;57.74;96780.66;5024039;28;20046;-77
2023/04/27 04:07:35;;;;;;;7.18;3.35;;;;;;;7.04;57.52;96774.00;5013606;28;20050;-77
2023/04/27 04:10:03;;;;;;;6.03;3.75;;;;;;;7.02;57.61;96775.94;5013762;28;20052;-77
2023/04/27 04:12:31;;;;;;;6.72;3.90;;;;;;;7.00;57.40;96773.47;5015732;28;20057;-77
2023/04/27 04:14:58;;;;;;;6.75;3.47;;;;;;;6.98;57.64;96775.41;5024111;28;20042;-77
2023/04/27 04:17:27;;;;;;;5.40;4.10;;;;;;;6.98;57.78;96775.41;5017303;28;20049;-77
2023/04/27 04:19:55;;;;;;;8.45;4.05;;;;;;;6.99;57.79;96781.41;5014772;28;20417;-77
2023/04/27 04:22:22;;;;;;;7.78;3.65;;;;;;;6.97;57.67;96780.75;5013382;28;20065;-77
2023/04/27 04:24:50;;;;;;;4.32;3.33;;;;;;;6.95;58.00;96796.47;5017456;28;20498;-77
2023/04/27 04:27:18;;;;;;;7.43;3.67;;;;;;;6.95;57.64;96787.88;5016865;28;20658;-77
2023/04/27 04:29:45;;;;;;;9.27;3.80;;;;;;;6.99;57.77;96791.78;5027284;28;20053;-77
2023/04/27 04:32:16;;;;;;;8.98;4.88;;;;;;;7.05;57.65;96798.16;5034128;28;20497;-77
2023/04/27 04:34:48;;;;;;;7.70;5.38;;;;;;;7.11;57.12;96792.34;5025806;28;20661;-77
2023/04/27 04:37:17;;;;;;;9.37;5.03;;;;;;;7.12;56.84;96786.19;5018159;28;20054;-77
2023/04/27 04:39:45;;;;;;;6.85;4.03;;;;;;;7.13;56.76;96777.44;5017573;28;20050;-76
2023/04/27 04:42:12;;;;;;;7.85;4.53;;;;;;;7.15;56.57;96773.72;5015831;28;20050;-76
2023/04/27 04:44:40;;;;;;;8.95;4.97;;;;;;;7.19;56.44;96776.78;5033677;28;20050;-77
2023/04/27 04:47:08;;;;;;;8.98;5.18;;;;;;;7.21;56.53;96780.03;5033915;28;20049;-77
2023/04/27 04:49:36;;;;;;;8.60;4.93;;;;;;;7.26;57.50;96800.34;5034556;28;20201;-77
2023/04/27 04:52:05;;;;;;;9.95;6.32;;;;;;;7.31;57.33;96796.31;5020079;28;20480;-77
2023/04/27 04:54:32;;;;;;;7.43;4.88;;;;;;;7.36;56.58;96793.25;5018391;28;20058;-76
2023/04/27 04:57:01;;;;;;;7.35;4.53;;;;;;;7.39;56.37;96804.13;5021202;28;20057;-77
2023/04/27 04:59:28;;;;;;;8.00;4.75;;;;;;;7.43;56.20;96805.47;5028632;28;20049;-77
2023/04/27 05:01:58;;;;;;;7.53;4.20;;;;;;;7.48;56.29;96806.75;5016355;28;20049;-77
2023/04/27 05:04:26;;;;;;;5.55;4.25;;;;;;;7.51;55.28;96806.44;5021671;28;20428;-77
2023/04/27 05:06:54;;;;;;;6.95;4.35;;;;;;;7.51;54.95;96796.06;5034820;28;20045;-77
2023/04/27 05:09:23;;;;;;;5.57;4.50;;;;;;;7.51;54.56;96803.84;5036128;28;20053;-77
2023/04/27 05:11:50;;;;;;;7.57;5.40;;;;;;;7.54;54.39;96795.72;5033817;28;20057;-77
2023/04/27 05:14:18;;;;;;;6.35;4.03;;;;;;;7.58;53.83;96791.84;5016325;28;20042;-78
2023/04/27 05:16:47;;;;;;;7.63;3.95;;;;;;;7.61;53.46;96796.75;5027827;28;20060;-78
2023/04/27 05:19:17;;;;;;;7.70;4.22;;;;;;;7.66;53.76;96799.69;5030812;28;20042;-77
2023/04/27 05:21:44;;;;;;;9.55;4.47;;;;;;;7.73;53.44;96800.66;5015095;28;20609;-77
2023/04/27 05:24:12;;;;;;;4.55;3.22;;;;;;;7.75;53.07;96798.72;5025725;28;20041;-77
2023/04/27 05:26:42;;;;;;;4.90;3.13;;;;;;;7.80;53.07;96806.03;5016098;28;20429;-78
2023/04/27 05:29:10;;;;;;;8.20;3.70;;;;;;;7.86;55.09;96802.00;5032550;28;20409;-78
2023/04/27 05:31:38;;;;;;;8.80;4.30;;;;;;;7.93;53.47;96810.75;5034857;28;20069;-78
2023/04/27 05:34:07;;;;;;;6.85;4.05;;;;;;;7.99;53.24;96810.13;5017705;28;20046;-77
2023/04/27 05:36:34;;;;;;;6.93;3.53;;;;;;;8.04;52.48;96808.66;5014716;28;20168;-78
2023/04/27 05:39:02;;;;;;;8.45;3.67;;;;;;;8.10;52.79;96815.00;5027308;28;20531;-78
2023/04/27 05:41:30;;;;;;;10.05;3.47;;;;;;;8.18;52.76;96809.84;5034326;28;20060;-78
2023/04/27 05:43:59;;;;;;;8.57;3.88;;;;;;;8.25;51.77;96821.19;5035774;28;20061;-78
2023/04/27 05:46:27;;;;;;;6.40;3.75;;;;;;;8.33;51.94;96816.97;5038040;28;20073;-78
2023/04/27 05:48:54;;;;;;;7.40;4.45;;;;;;;8.38;51.63;96810.31;5033829;28;20099;-78
2023/04/27 05:51:22;;;;;;;7.18;3.55;;;;;;;8.43;51.58;96810.66;5037486;28;20433;-77
2023/04/27 05:53:52;;;;;;;8.02;3.53;;;;;;;8.48;51.24;96814.56;5015152;28;20050;-78
2023/04/27 05:56:20;;;;;;;9.75;3.80;;;;;;;8.52;51.67;96816.69;5014311;28;20053;-77
2023/04/27 05:58:47;;;;;;;6.85;3.80;;;;;;;8.56;50.80;96807.59;5015449;28;20412;-77
2023/04/27 06:01:16;;;;;;;7.97;3.80;;;;;;;8.59;50.67;96812.47;5023746;28;20250;-77
2023/04/27 06:03:44;;;;;;;9.15;4.00;;;;;;;8.65;50.52;96818.78;5014836;28;20046;-78
2023/04/27 06:06:12;;;;;;;8.77;4.43;;;;;;;8.72;51.06;96821.53;5030911;28;20050;-77
2023/04/27 06:08:40;;;;;;;9.10;4.45;;;;;;;8.81;51.42;96828.34;5023670;28;20044;-77
2023/04/27 06:11:07;;;;;;;6.70;3.90;;;;;;;8.89;53.38;96819.75;5028553;28;20099;-77
2023/04/27 06:13:35;;;;;;;9.18;4.18;;;;;;;8.96;52.21;96824.09;5030732;28;20056;-78
2023/04/27 06:16:02;;;;;;;4.80;3.88;;;;;;;9.01;51.08;96824.44;5024185;28;20045;-78
2023/04/27 06:18:31;;;;;;;5.15;4.15;;;;;;;9.06;50.63;96824.75;5031754;28;20076;-78
2023/04/27 06:21:00;;;;;;;6.15;3.58;;;;;;;9.12;50.27;96825.03;5020747;28;20053;-79
2023/04/27 06:23:29;;;;;;;6.78;4.20;;;;;;;9.16;49.66;96823.72;5020269;28;20061;-78
2023/04/27 06:25:57;;;;;;;10.40;4.85;;;;;;;9.21;49.92;96831.88;5017863;28;20429;-78
2023/04/27 06:28:25;;;;;;;12.43;5.10;;;;;;;9.25;49.48;96836.56;5032656;28;20505;-78
2023/04/27 06:30:53;;;;;;;7.85;3.92;;;;;;;9.32;49.01;96839.31;5022224;28;20048;-78
2023/04/27 06:33:20;;;;;;;8.18;4.18;;;;;;;9.40;49.88;96844.50;5015454;28;20045;-78
2023/04/27 06:35:49;;;;;;;7.53;3.83;;;;;;;9.48;49.00;96844.44;5026032;28;20133;-78
2023/04/27 06:38:18;;;;;;;7.95;3.80;;;;;;;9.57;49.02;96853.03;5017121;28;20049;-78
2023/04/27 06:40:49;;;;;;;5.88;3.85;;;;;;;9.65;52.31;96850.41;5013575;28;20046;-78
2023/04/27 06:43:17;;;;;;;4.27;3.30;;;;;;;9.75;50.49;96849.38;4993439;28;20054;-78
2023/04/27 06:45:45;;;;;;;8.00;4.05;;;;;;;9.82;49.12;96850.34;5002692;28;20306;-78
2023/04/27 06:48:12;;;;;;;8.68;4.05;;;;;;;9.85;48.60;96845.59;5015817;28;20100;-78
2023/04/27 06:50:40;;;;;;;6.40;4.32;;;;;;;9.93;48.70;96846.53;5036117;23;20052;-82
2023/04/27 06:53:09;;;;;;;10.18;3.58;;;;;;;9.99;48.04;96845.84;5033535;28;20055;-81
2023/04/27 06:55:37;;;;;;;4.57;3.20;;;;;;;10.04;50.01;96843.56;5030998;28;20132;-80
2023/04/27 06:58:05;;;;;;;5.93;3.63;;;;;;;10.14;50.86;96849.31;5017151;28;20140;-80
2023/04/27 07:00:32;;;;;;;6.72;3.33;;;;;;;10.19;49.31;96847.03;5014108;28;20113;-79
2023/04/27 07:03:01;;;;;;;3.83;3.28;;;;;;;10.21;48.11;96850.28;5016217;28;20054;-78
2023/04/27 07:05:28;;;;;;;7.38;3.47;;;;;;;10.23;47.98;96847.47;5016434;28;20425;-78
2023/04/27 07:07:56;;;;;;;6.80;3.28;;;;;;;10.28;48.56;96846.00;5016463;28;20073;-80
2023/04/27 07:10:25;;;;;;;9.63;3.65;;;;;;;10.34;47.58;96844.50;5016892;28;20606;-80
2023/04/27 07:12:53;;;;;;;6.85;3.78;;;;;;;10.41;47.64;96844.66;5017125;28;20062;-77
2023/04/27 07:15:21;;;;;;;8.90;2.88;;;;;;;10.48;47.45;96848.16;5018346;28;20054;-80
2023/04/27 07:17:49;;;;;;;6.07;3.58;;;;;;;10.52;47.71;96847.63;5017048;28;20054;-79
2023/04/27 07:20:17;;;;;;;6.10;2.90;;;;;;;10.60;47.38;96838.91;5014979;28;20498;-79
2023/04/27 07:22:44;;;;;;;5.10;2.78;;;;;;;10.69;50.58;96843.09;5016488;28;20068;-81
2023/04/27 07:25:12;;;;;;;11.95;3.25;;;;;;;10.78;50.52;96843.00;5018278;28;20046;-79
2023/04/27 07:27:41;;;;;;;7.88;3.75;;;;;;;10.85;48.13;96849.97;5017062;28;20073;-79
2023/04/27 07:30:12;;;;;;;5.05;2.95;;;;;;;10.94;48.32;96848.09;5017627;28;20046;-80
2023/04/27 07:32:40;;;;;;;5.60;3.30;;;;;;;11.07;48.09;96850.91;5017392;28;20506;-79
2023/04/27 07:35:09;;;;;;;10.27;3.75;;;;;;;11.20;47.44;96849.50;5017871;28;20545;-79
2023/04/27 07:37:37;;;;;;;9.95;3.70;;;;;;;11.29;47.48;96854.44;5018419;28;20057;-78
2023/04/27 07:40:09;;;;;;;8.85;3.72;;;;;;;11.39;46.63;96855.94;5022123;28;20050;-79
2023/04/27 07:42:41;;;;;;;7.43;4.15;;;;;;;11.45;45.31;96850.81;5015626;28;20081;-77
2023/04/27 07:45:10;;;;;;;5.28;3.20;;;;;;;11.54;45.84;96851.53;5017426;28;20038;-80
2023/04/27 07:47:38;;;;;;;8.32;4.43;;;;;;;11.64;45.29;96851.28;5017527;28;20426;-82
2023/04/27 07:50:07;;;;;;;7.13;3.55;;;;;;;11.75;45.60;96850.81;5018145;28;20046;-81
2023/04/27 07:52:34;;;;;;;2.83;2.55;;;;;;;11.91;46.15;96848.00;5018395;28;20114;-81
2023/04/27 07:55:03;;;;;;;9.82;3.35;;;;;;;12.08;45.51;96853.00;5018369;28;20060;-79
2023/04/27 07:57:31;;;;;;;7.18;3.60;;;;;;;12.32;44.86;96854.47;5019391;28;20053;-85
2023/04/27 08:00:00;;;;;;;7.95;3.28;;;;;;;12.57;44.38;96842.63;5021841;28;20049;-79
2023/04/27 08:02:29;;;;;;;8.15;3.78;;;;;;;12.84;44.79;96842.84;5021403;28;20479;-78
2023/04/27 08:04:57;;;;;;;5.80;2.80;;;;;;;13.07;44.85;96847.03;5008672;28;20514;-82
2023/04/27 08:07:26;;;;;;;9.73;3.65;;;;;;;13.29;43.89;96846.00;5008511;28;20050;-80
2023/04/27 08:09:54;;;;;;;14.10;4.00;;;;;;;13.56;43.89;96849.56;5023056;28;20053;-80
2023/04/27 08:12:22;;;;;;;6.13;3.03;;;;;;;13.77;42.78;96842.59;5017116;28;20110;-79
2023/04/27 08:14:49;;;;;;;19.73;4.57;;;;;;;14.01;42.06;96844.72;5002486;28;20050;-81
2023/04/27 08:17:20;;;;;;;9.93;4.57;;;;;;;14.30;41.12;96849.81;5006183;28;20481;-81
2023/04/27 08:19:48;;;;;;;7.32;3.47;;;;;;;14.39;41.67;96840.78;5020116;28;20050;-81
2023/04/27 08:22:15;;;;;;;8.02;3.33;;;;;;;14.54;43.57;96843.19;5014273;28;20050;-80
2023/04/27 08:24:43;;;;;;;8.55;3.72;;;;;;;14.73;40.92;96842.41;5011256;28;20060;-83
2023/04/27 08:27:10;;;;;;;10.68;3.90;;;;;;;14.88;40.08;96841.41;5020147;28;20133;-81
2023/04/27 08:29:38;;;;;;;4.00;3.13;;;;;;;14.97;39.40;96840.19;5021784;28;20052;-80
2023/04/27 08:32:05;;;;;;;6.88;3.75;;;;;;;15.10;39.10;96840.19;5020670;28;20053;-80
2023/04/27 08:34:34;;;;;;;5.60;3.35;;;;;;;15.24;38.22;96851.50;5021256;28;20136;-83
2023/04/27 08:37:03;;;;;;;10.60;3.30;;;;;;;15.37;38.86;96843.59;5019899;28;20133;-82
2023/04/27 08:39:30;;;;;;;6.03;2.72;;;;;;;15.60;38.40;96843.09;5019745;28;20137;-81
2023/04/27 08:41:58;;;;;;;6.65;3.35;;;;;;;15.77;38.64;96847.94;5019808;28;20050;-82
2023/04/27 08:44:26;;;;;;;5.57;2.90;;;;;;;15.96;41.22;96841.78;5019439;28;20054;-81
2023/04/27 08:46:53;;;;;;;4.25;3.08;;;;;;;16.16;38.94;96841.69;5018784;28;20077;-82
2023/04/27 08:49:21;;;;;;;8.25;3.97;;;;;;;16.27;38.58;96832.31;5018984;28;20054;-79
2023/04/27 08:51:50;;;;;;;7.25;3.00;;;;;;;16.31;37.70;96830.88;5019130;28;20057;-81
2023/04/27 08:54:19;;;;;;;5.70;2.65;;;;;;;16.27;37.38;96832.31;5018418;28;20045;-79
2023/04/27 08:56:46;;;;;;;8.13;2.90;;;;;;;16.27;37.31;96825.22;5018220;28;20108;-79
2023/04/27 08:59:16;;;;;;;7.00;3.20;;;;;;;16.36;37.71;96833.66;4999380;28;20060;-81
2023/04/27 09:01:45;;;;;;;5.00;2.97;;;;;;;16.52;40.51;96832.34;5015211;28;20081;-80
2023/04/27 09:04:13;;;;;;;10.90;3.30;;;;;;;16.62;37.51;96829.25;5018906;28;20049;-82
2023/04/27 09:06:41;;;;;;;6.65;3.30;;;;;;;16.72;37.16;96829.56;5020927;28;20128;-81
2023/04/27 09:09:21;;;;;;;4.18;2.55;;;;;;;16.79;42.43;96819.78;5017175;28;20077;-82
2023/04/27 09:11:49;;;;;;;4.68;2.83;;;;;;;16.83;38.00;96814.91;5018819;28;20061;-79
2023/04/27 09:14:18;;;;;;;5.38;2.72;;;;;;;16.78;36.60;96823.44;5009802;28;20052;-79
2023/04/27 09:16:46;;;;;;;4.80;2.75;;;;;;;16.85;37.10;96811.03;5019902;28;20060;-80
2023/04/27 09:19:23;;;;;;;2.75;2.30;;;;;;;17.03;37.15;96814.72;5020294;28;20076;-80
2023/04/27 09:21:51;;;;;;;4.45;2.70;;;;;;;17.24;40.22;96816.94;5019818;28;20046;-81
2023/04/27 09:24:20;;;;;;;4.70;2.70;;;;;;;17.38;35.76;96816.81;5018326;28;20067;-79
2023/04/27 09:26:49;;;;;;;5.72;3.47;;;;;;;17.49;35.01;96814.25;5019464;28;20577;-78
2023/04/27 09:29:17;;;;;;;5.28;3.35;;;;;;;17.58;35.19;96811.31;5020164;28;20054;-79
2023/04/27 09:31:45;;;;;;;6.25;2.83;;;;;;;17.63;35.17;96820.19;5019780;28;20201;-79
2023/04/27 09:34:12;;;;;;;6.00;2.85;;;;;;;17.72;35.18;96810.13;5021207;28;20049;-80
2023/04/27 09:36:40;;;;;;;7.82;3.00;;;;;;;17.85;35.09;96806.56;5015937;28;20054;-79
2023/04/27 09:39:09;;;;;;;8.48;2.67;;;;;;;17.99;35.13;96804.53;5002800;28;20076;-81
2023/04/27 09:41:38;;;;;;;7.60;2.75;;;;;;;18.07;34.14;96804.25;4999876;28;20518;-80
2023/04/27 09:44:07;;;;;;;5.82;2.55;;;;;;;18.15;33.79;96800.47;5003108;28;20046;-80
2023/04/27 09:46:35;;;;;;;3.78;2.47;;;;;;;18.18;33.73;96800.81;5019596;28;20072;-79
2023/04/27 09:49:04;;;;;;;5.93;2.70;;;;;;;18.26;35.30;96794.44;5019078;28;20129;-80
2023/04/27 09:51:33;;;;;;;4.55;2.28;;;;;;;18.36;34.49;96802.59;5002452;28;20049;-77
2023/04/27 09:54:03;;;;;;;5.70;2.58;;;;;;;18.53;33.62;96798.25;5001182;28;20054;-80
2023/04/27 09:56:44;;;;;;;4.28;2.80;;;;;;;18.67;32.32;96793.59;5001262;28;20106;-80
2023/04/27 09:59:36;;;;;;;5.32;3.55;;;;;;;18.70;31.05;96797.63;4999561;28;20057;-80
2023/04/27 10:02:05;;;;;;;7.85;2.95;;;;;;;18.65;31.97;96800.94;5016042;28;20104;-79
2023/04/27 10:05:09;;;;;;;4.38;2.30;;;;;;;18.70;31.25;96802.91;5018725;28;20062;-80
2023/04/27 10:07:39;;;;;;;5.40;2.95;;;;;;;18.74;31.82;96799.56;5019508;28;20050;-82
2023/04/27 10:10:15;;;;;;;4.93;2.50;;;;;;;18.85;33.93;96795.34;5018752;28;20045;-79
2023/04/27 10:12:44;;;;;;;4.93;2.80;;;;;;;18.98;31.79;96801.44;5017942;28;20048;-79
2023/04/27 10:15:13;;;;;;;5.22;2.80;;;;;;;18.97;31.51;96797.19;5017763;28;20045;-80
2023/04/27 10:17:48;;;;;;;4.35;2.67;;;;;;;19.00;31.25;96802.00;5014559;28;20144;-79
2023/04/27 10:20:16;;;;;;;5.93;3.22;;;;;;;19.03;34.16;96798.91;4998130;28;20057;-78
2023/04/27 10:22:46;;;;;;;4.93;2.90;;;;;;;19.16;32.23;96795.25;5004884;28;20426;-79
2023/04/27 10:25:17;;;;;;;5.28;2.88;;;;;;;19.22;31.93;96800.41;5000944;28;20072;-78
2023/04/27 10:27:51;;;;;;;7.80;3.08;;;;;;;19.28;36.87;96799.44;5019618;28;20133;-82
2023/04/27 10:30:20;;;;;;;6.18;3.33;;;;;;;19.38;35.19;96796.25;5012980;28;20046;-80
2023/04/27 10:32:51;;;;;;;4.70;3.00;;;;;;;19.47;37.30;96801.97;4998279;28;20541;-81
2023/04/27 10:35:21;;;;;;;5.18;2.90;;;;;;;19.51;32.70;96793.31;4997634;28;20057;-80
2023/04/27 10:37:48;;;;;;;3.42;2.60;;;;;;;19.55;36.36;96786.53;5014995;28;20125;-78
2023/04/27 10:40:17;;;;;;;5.68;2.90;;;;;;;19.68;35.51;96785.47;5013471;28;20050;-80
2023/04/27 10:42:48;;;;;;;4.80;2.53;;;;;;;19.75;31.95;96780.06;4997252;28;20066;-82
2023/04/27 10:45:28;;;;;;;4.32;2.42;;;;;;;19.74;33.91;96789.84;5012251;28;20129;-80
2023/04/27 10:47:58;;;;;;;;;;;;;;;19.82;32.38;96786.03;5001216;28;20077;-83
2023/04/27 10:50:27;;;;;;;5.15;2.28;;;;;;;19.83;33.73;96787.66;5013700;28;19921;-79
2023/04/27 10:53:00;;;;;;;5.28;2.60;;;;;;;19.84;32.66;96786.59;5018929;28;20056;-80
2023/04/27 10:55:28;;;;;;;4.45;2.35;;;;;;;19.90;35.26;96785.66;5020163;28;20057;-81
2023/04/27 10:57:56;;;;;;;5.45;2.40;;;;;;;19.96;31.56;96781.22;5021023;28;20046;-81
2023/04/27 11:00:25;;;;;;;4.30;2.13;;;;;;;19.96;30.98;96781.22;5016652;28;20057;-82
2023/04/27 11:02:57;;;;;;;3.97;2.55;;;;;;;19.92;30.05;96777.47;5000115;28;20102;-81
2023/04/27 11:05:28;;;;;;;3.97;2.20;;;;;;;19.79;29.91;96772.44;5020920;28;20469;-81
2023/04/27 11:08:05;;;;;;;5.00;2.42;;;;;;;19.70;29.65;96785.25;5019064;28;20088;-81
2023/04/27 11:10:34;;;;;;;3.30;2.13;;;;;;;19.72;34.25;96784.00;5019582;28;20042;-82
2023/04/27 11:13:08;;;;;;;3.70;1.95;;;;;;;19.79;32.60;96777.72;5012754;28;20385;-78
2023/04/27 11:15:46;;;;;;;7.75;2.88;;;;;;;19.83;29.90;96774.41;5017729;28;20038;-82
2023/04/27 11:18:16;;;;;;;4.10;2.28;;;;;;;19.75;30.45;96774.78;5017367;28;20053;-77
2023/04/27 11:20:45;;;;;;;4.03;2.08;;;;;;;19.77;32.01;96770.06;5009611;28;20050;-79
2023/04/27 11:23:23;;;;;;;3.13;2.33;;;;;;;19.80;31.39;96768.78;5016345;28;20136;-79
2023/04/27 11:25:51;;;;;;;3.08;2.08;;;;;;;19.88;31.05;96776.34;5020936;28;20054;-79
2023/04/27 11:28:19;;;;;;;7.05;2.78;;;;;;;19.96;30.84;96773.28;5021200;28;20053;-80
2023/04/27 11:30:48;;;;;;;4.13;1.63;;;;;;;20.03;30.98;96776.63;5019125;28;20128;-79
2023/04/27 11:33:17;;;;;;;2.65;1.80;;;;;;;20.12;32.24;96772.53;5012151;28;20154;-81
2023/04/27 11:35:44;;;;;;;2.38;1.55;;;;;;;20.15;30.84;96772.06;5014349;28;20054;-83
2023/04/27 11:38:17;;;;;;;5.35;1.60;;;;;;;20.20;30.38;96770.53;5024011;28;20187;-83
2023/04/27 11:40:45;;;;;;;7.22;2.15;;;;;;;20.27;31.78;96765.88;5026272;28;20050;-83
2023/04/27 11:43:13;;;;;;;6.03;2.40;;;;;;;20.32;31.12;96755.38;5026922;28;20061;-82
2023/04/27 11:45:44;;;;;;;3.85;1.50;;;;;;;20.36;31.96;96765.25;5021904;28;20042;-80